sensor_id;sensor_type;location;lat;lon;timestamp;temperature;humidity
54429;DHT22;40337;52.978;6.310;2023-02-20T00:02:14;6.00;99.90
54429;DHT22;40337;52.978;6.310;2023-02-20T00:04:40;6.00;99.90
54429;DHT22;40337;52.978;6.310;2023-02-20T00:07:06;6.00;99.90
54429;DHT22;40337;52.978;6.310;2023-02-20T00:09:32;6.00;99.90
54429;DHT22;40337;52.978;6.310;2023-02-20T00:11:57;6.00;99.90
54429;DHT22;40337;52.978;6.310;2023-02-20T00:14:23;6.00;99.90
54429;DHT22;40337;52.978;6.310;2023-02-20T00:16:49;6.00;99.90
54429;DHT22;40337;52.978;6.310;2023-02-20T00:19:14;6.00;99.90
54429;DHT22;40337;52.978;6.310;2023-02-20T00:21:47;6.00;99.90
54429;DHT22;40337;52.978;6.310;2023-02-20T00:24:14;6.00;99.90
54429;DHT22;40337;52.978;6.310;2023-02-20T00:26:48;6.00;99.90
54429;DHT22;40337;52.978;6.310;2023-02-20T00:29:15;6.00;99.90
54429;DHT22;40337;52.978;6.310;2023-02-20T00:31:41;6.10;99.90
54429;DHT22;40337;52.978;6.310;2023-02-20T00:34:07;6.10;99.90
54429;DHT22;40337;52.978;6.310;2023-02-20T00:36:33;6.20;99.90
54429;DHT22;40337;52.978;6.310;2023-02-20T00:38:58;6.20;99.90
54429;DHT22;40337;52.978;6.310;2023-02-20T00:41:24;6.30;99.90
54429;DHT22;40337;52.978;6.310;2023-02-20T00:43:50;6.30;99.90
54429;DHT22;40337;52.978;6.310;2023-02-20T00:46:16;6.30;99.90
54429;DHT22;40337;52.978;6.310;2023-02-20T00:48:41;6.30;99.90
54429;DHT22;40337;52.978;6.310;2023-02-20T00:51:07;6.40;99.90
54429;DHT22;40337;52.978;6.310;2023-02-20T00:53:33;6.30;99.90
54429;DHT22;40337;52.978;6.310;2023-02-20T00:55:58;6.40;99.90
54429;DHT22;40337;52.978;6.310;2023-02-20T00:58:24;6.40;99.90
54429;DHT22;40337;52.978;6.310;2023-02-20T01:00:49;6.40;99.90
54429;DHT22;40337;52.978;6.310;2023-02-20T01:03:15;6.40;99.90
54429;DHT22;40337;52.978;6.310;2023-02-20T01:05:40;6.40;99.90
54429;DHT22;40337;52.978;6.310;2023-02-20T01:08:06;6.40;99.90
54429;DHT22;40337;52.978;6.310;2023-02-20T01:10:31;6.40;99.90
54429;DHT22;40337;52.978;6.310;2023-02-20T01:12:57;6.40;99.90
54429;DHT22;40337;52.978;6.310;2023-02-20T01:15:22;6.30;99.90
54429;DHT22;40337;52.978;6.310;2023-02-20T01:17:48;6.30;99.90
54429;DHT22;40337;52.978;6.310;2023-02-20T01:20:13;6.30;99.90
54429;DHT22;40337;52.978;6.310;2023-02-20T01:22:39;6.20;99.90
54429;DHT22;40337;52.978;6.310;2023-02-20T01:25:06;6.20;99.90
54429;DHT22;40337;52.978;6.310;2023-02-20T01:27:31;6.20;99.90
54429;DHT22;40337;52.978;6.310;2023-02-20T01:29:57;6.30;99.90
54429;DHT22;40337;52.978;6.310;2023-02-20T01:32:23;6.30;99.90
54429;DHT22;40337;52.978;6.310;2023-02-20T01:34:48;6.30;99.90
54429;DHT22;40337;52.978;6.310;2023-02-20T01:37:14;6.40;99.90
54429;DHT22;40337;52.978;6.310;2023-02-20T01:39:39;6.30;99.90
54429;DHT22;40337;52.978;6.310;2023-02-20T01:42:07;6.40;99.90
54429;DHT22;40337;52.978;6.310;2023-02-20T01:44:36;6.50;99.90
54429;DHT22;40337;52.978;6.310;2023-02-20T01:47:07;6.50;99.90
54429;DHT22;40337;52.978;6.310;2023-02-20T01:49:40;6.50;99.90
54429;DHT22;40337;52.978;6.310;2023-02-20T01:52:13;6.60;99.90
54429;DHT22;40337;52.978;6.310;2023-02-20T01:54:41;6.60;99.90
54429;DHT22;40337;52.978;6.310;2023-02-20T01:57:12;6.60;99.90
54429;DHT22;40337;52.978;6.310;2023-02-20T01:59:38;6.60;99.90
54429;DHT22;40337;52.978;6.310;2023-02-20T02:02:06;6.60;99.90
54429;DHT22;40337;52.978;6.310;2023-02-20T02:04:33;6.60;99.90
54429;DHT22;40337;52.978;6.310;2023-02-20T02:06:59;6.70;99.90
54429;DHT22;40337;52.978;6.310;2023-02-20T02:09:40;6.70;99.90
54429;DHT22;40337;52.978;6.310;2023-02-20T02:12:07;6.80;99.90
54429;DHT22;40337;52.978;6.310;2023-02-20T02:14:33;6.70;99.90
54429;DHT22;40337;52.978;6.310;2023-02-20T02:17:21;6.70;99.90
54429;DHT22;40337;52.978;6.310;2023-02-20T02:20:23;6.70;99.90
54429;DHT22;40337;52.978;6.310;2023-02-20T02:29:26;6.80;99.90
54429;DHT22;40337;52.978;6.310;2023-02-20T02:32:33;6.90;99.90
54429;DHT22;40337;52.978;6.310;2023-02-20T02:35:16;6.90;99.90
54429;DHT22;40337;52.978;6.310;2023-02-20T02:38:03;6.90;99.90
54429;DHT22;40337;52.978;6.310;2023-02-20T02:40:56;6.90;99.90
54429;DHT22;40337;52.978;6.310;2023-02-20T02:43:34;6.90;99.90
54429;DHT22;40337;52.978;6.310;2023-02-20T02:46:09;6.90;99.90
54429;DHT22;40337;52.978;6.310;2023-02-20T02:48:53;7.00;99.90
54429;DHT22;40337;52.978;6.310;2023-02-20T02:51:25;6.90;99.90
54429;DHT22;40337;52.978;6.310;2023-02-20T02:54:16;6.90;99.90
54429;DHT22;40337;52.978;6.310;2023-02-20T02:56:46;6.90;99.90
54429;DHT22;40337;52.978;6.310;2023-02-20T02:59:22;6.90;99.90
54429;DHT22;40337;52.978;6.310;2023-02-20T03:01:56;7.00;99.90
54429;DHT22;40337;52.978;6.310;2023-02-20T03:04:23;7.00;99.90
54429;DHT22;40337;52.978;6.310;2023-02-20T03:06:52;7.00;99.90
54429;DHT22;40337;52.978;6.310;2023-02-20T03:09:26;7.00;99.90
54429;DHT22;40337;52.978;6.310;2023-02-20T03:11:54;7.10;99.90
54429;DHT22;40337;52.978;6.310;2023-02-20T03:14:45;7.10;99.90
54429;DHT22;40337;52.978;6.310;2023-02-20T03:17:32;7.10;99.90
54429;DHT22;40337;52.978;6.310;2023-02-20T03:20:10;7.10;99.90
54429;DHT22;40337;52.978;6.310;2023-02-20T03:22:56;7.20;99.90
54429;DHT22;40337;52.978;6.310;2023-02-20T03:25:30;7.20;99.90
54429;DHT22;40337;52.978;6.310;2023-02-20T03:27:59;7.20;99.90
54429;DHT22;40337;52.978;6.310;2023-02-20T03:30:27;7.20;99.90
54429;DHT22;40337;52.978;6.310;2023-02-20T03:33:00;7.30;99.90
54429;DHT22;40337;52.978;6.310;2023-02-20T03:35:47;7.30;99.90
54429;DHT22;40337;52.978;6.310;2023-02-20T03:38:35;7.30;99.90
54429;DHT22;40337;52.978;6.310;2023-02-20T03:41:21;7.30;99.90
54429;DHT22;40337;52.978;6.310;2023-02-20T03:44:07;7.30;99.90
54429;DHT22;40337;52.978;6.310;2023-02-20T03:46:34;7.30;99.90
54429;DHT22;40337;52.978;6.310;2023-02-20T03:49:21;7.30;99.90
54429;DHT22;40337;52.978;6.310;2023-02-20T03:51:49;7.30;99.90
54429;DHT22;40337;52.978;6.310;2023-02-20T03:54:25;7.30;99.90
54429;DHT22;40337;52.978;6.310;2023-02-20T03:57:06;7.30;99.90
54429;DHT22;40337;52.978;6.310;2023-02-20T03:59:41;7.30;99.90
54429;DHT22;40337;52.978;6.310;2023-02-20T04:02:15;7.30;99.90
54429;DHT22;40337;52.978;6.310;2023-02-20T04:04:47;7.30;99.90
54429;DHT22;40337;52.978;6.310;2023-02-20T04:07:18;7.30;99.90
54429;DHT22;40337;52.978;6.310;2023-02-20T04:09:46;7.30;99.90
54429;DHT22;40337;52.978;6.310;2023-02-20T04:12:23;7.40;99.90
54429;DHT22;40337;52.978;6.310;2023-02-20T04:14:51;7.40;99.90
54429;DHT22;40337;52.978;6.310;2023-02-20T04:17:23;7.40;99.90
54429;DHT22;40337;52.978;6.310;2023-02-20T04:19:50;7.40;99.90
54429;DHT22;40337;52.978;6.310;2023-02-20T04:22:26;7.40;99.90
54429;DHT22;40337;52.978;6.310;2023-02-20T04:25:00;7.40;99.90
54429;DHT22;40337;52.978;6.310;2023-02-20T04:27:26;7.40;99.90
54429;DHT22;40337;52.978;6.310;2023-02-20T04:29:52;7.40;99.90
54429;DHT22;40337;52.978;6.310;2023-02-20T04:32:18;7.40;99.90
54429;DHT22;40337;52.978;6.310;2023-02-20T04:34:44;7.40;99.90
54429;DHT22;40337;52.978;6.310;2023-02-20T04:37:13;7.40;99.90
54429;DHT22;40337;52.978;6.310;2023-02-20T04:39:39;7.40;99.90
54429;DHT22;40337;52.978;6.310;2023-02-20T04:42:05;7.40;99.90
54429;DHT22;40337;52.978;6.310;2023-02-20T04:44:31;7.40;99.90
54429;DHT22;40337;52.978;6.310;2023-02-20T04:47:02;7.40;99.90
54429;DHT22;40337;52.978;6.310;2023-02-20T04:49:28;7.40;99.90
54429;DHT22;40337;52.978;6.310;2023-02-20T04:51:54;7.40;99.90
54429;DHT22;40337;52.978;6.310;2023-02-20T04:54:19;7.40;99.90
54429;DHT22;40337;52.978;6.310;2023-02-20T04:56:45;7.40;99.90
54429;DHT22;40337;52.978;6.310;2023-02-20T04:59:11;7.40;99.90
54429;DHT22;40337;52.978;6.310;2023-02-20T05:01:36;7.40;99.90
54429;DHT22;40337;52.978;6.310;2023-02-20T05:04:02;7.40;99.90
54429;DHT22;40337;52.978;6.310;2023-02-20T05:06:27;7.40;99.90
54429;DHT22;40337;52.978;6.310;2023-02-20T05:08:53;7.40;99.90
54429;DHT22;40337;52.978;6.310;2023-02-20T05:11:19;7.40;99.90
54429;DHT22;40337;52.978;6.310;2023-02-20T05:13:44;7.40;99.90
54429;DHT22;40337;52.978;6.310;2023-02-20T05:16:10;7.40;99.90
54429;DHT22;40337;52.978;6.310;2023-02-20T05:18:38;7.40;99.90
54429;DHT22;40337;52.978;6.310;2023-02-20T05:21:04;7.40;99.90
54429;DHT22;40337;52.978;6.310;2023-02-20T05:23:48;7.40;99.90
54429;DHT22;40337;52.978;6.310;2023-02-20T05:26:20;7.40;99.90
54429;DHT22;40337;52.978;6.310;2023-02-20T05:28:46;7.40;99.90
54429;DHT22;40337;52.978;6.310;2023-02-20T05:31:12;7.40;99.90
54429;DHT22;40337;52.978;6.310;2023-02-20T05:33:37;7.40;99.90
54429;DHT22;40337;52.978;6.310;2023-02-20T05:36:04;7.40;99.90
54429;DHT22;40337;52.978;6.310;2023-02-20T05:38:29;7.40;99.90
54429;DHT22;40337;52.978;6.310;2023-02-20T05:40:55;7.50;99.90
54429;DHT22;40337;52.978;6.310;2023-02-20T05:43:20;7.50;99.90
54429;DHT22;40337;52.978;6.310;2023-02-20T05:45:46;7.50;99.90
54429;DHT22;40337;52.978;6.310;2023-02-20T05:48:12;7.50;99.90
54429;DHT22;40337;52.978;6.310;2023-02-20T05:50:38;7.50;99.90
54429;DHT22;40337;52.978;6.310;2023-02-20T05:53:03;7.50;99.90
54429;DHT22;40337;52.978;6.310;2023-02-20T05:55:29;7.50;99.90
54429;DHT22;40337;52.978;6.310;2023-02-20T05:57:55;7.50;99.90
54429;DHT22;40337;52.978;6.310;2023-02-20T06:00:21;7.60;99.90
54429;DHT22;40337;52.978;6.310;2023-02-20T06:02:47;7.60;99.90
54429;DHT22;40337;52.978;6.310;2023-02-20T06:05:13;7.60;99.90
54429;DHT22;40337;52.978;6.310;2023-02-20T06:07:38;7.60;99.90
54429;DHT22;40337;52.978;6.310;2023-02-20T06:10:04;7.60;99.90
54429;DHT22;40337;52.978;6.310;2023-02-20T06:12:30;7.60;99.90
54429;DHT22;40337;52.978;6.310;2023-02-20T06:14:56;7.60;99.90
54429;DHT22;40337;52.978;6.310;2023-02-20T06:17:21;7.70;99.90
54429;DHT22;40337;52.978;6.310;2023-02-20T06:19:48;7.70;99.90
54429;DHT22;40337;52.978;6.310;2023-02-20T06:22:15;7.70;99.90
54429;DHT22;40337;52.978;6.310;2023-02-20T06:24:44;7.70;99.90
54429;DHT22;40337;52.978;6.310;2023-02-20T06:27:11;7.70;99.90
54429;DHT22;40337;52.978;6.310;2023-02-20T06:29:36;7.80;99.90
54429;DHT22;40337;52.978;6.310;2023-02-20T06:32:02;7.80;99.90
54429;DHT22;40337;52.978;6.310;2023-02-20T06:34:27;7.80;99.90
54429;DHT22;40337;52.978;6.310;2023-02-20T06:36:58;7.80;99.90
54429;DHT22;40337;52.978;6.310;2023-02-20T06:39:24;7.80;99.90
54429;DHT22;40337;52.978;6.310;2023-02-20T06:41:49;7.80;99.90
54429;DHT22;40337;52.978;6.310;2023-02-20T06:44:15;7.80;99.90
54429;DHT22;40337;52.978;6.310;2023-02-20T06:46:40;7.80;99.90
54429;DHT22;40337;52.978;6.310;2023-02-20T06:49:06;7.90;99.90
54429;DHT22;40337;52.978;6.310;2023-02-20T06:51:33;7.90;99.90
54429;DHT22;40337;52.978;6.310;2023-02-20T06:54:00;7.90;99.90
54429;DHT22;40337;52.978;6.310;2023-02-20T06:56:28;7.90;99.90
54429;DHT22;40337;52.978;6.310;2023-02-20T06:58:54;7.90;99.90
54429;DHT22;40337;52.978;6.310;2023-02-20T07:01:23;7.90;99.90
54429;DHT22;40337;52.978;6.310;2023-02-20T07:03:51;7.90;99.90
54429;DHT22;40337;52.978;6.310;2023-02-20T07:06:18;7.90;99.90
54429;DHT22;40337;52.978;6.310;2023-02-20T07:08:44;8.00;99.90
54429;DHT22;40337;52.978;6.310;2023-02-20T07:11:10;8.00;99.90
54429;DHT22;40337;52.978;6.310;2023-02-20T07:13:36;8.00;99.90
54429;DHT22;40337;52.978;6.310;2023-02-20T07:16:01;8.00;99.90
54429;DHT22;40337;52.978;6.310;2023-02-20T07:18:27;8.00;99.90
54429;DHT22;40337;52.978;6.310;2023-02-20T07:20:53;8.00;99.90
54429;DHT22;40337;52.978;6.310;2023-02-20T07:23:19;8.00;99.90
54429;DHT22;40337;52.978;6.310;2023-02-20T07:25:45;8.00;99.90
54429;DHT22;40337;52.978;6.310;2023-02-20T07:28:12;8.00;99.90
54429;DHT22;40337;52.978;6.310;2023-02-20T07:30:38;8.00;99.90
54429;DHT22;40337;52.978;6.310;2023-02-20T07:33:04;8.00;99.90
54429;DHT22;40337;52.978;6.310;2023-02-20T07:35:29;8.10;99.90
54429;DHT22;40337;52.978;6.310;2023-02-20T07:37:55;8.10;99.90
54429;DHT22;40337;52.978;6.310;2023-02-20T07:40:20;8.10;99.90
54429;DHT22;40337;52.978;6.310;2023-02-20T07:42:46;8.10;99.90
54429;DHT22;40337;52.978;6.310;2023-02-20T07:45:12;8.10;99.90
54429;DHT22;40337;52.978;6.310;2023-02-20T07:47:37;8.10;99.90
54429;DHT22;40337;52.978;6.310;2023-02-20T07:50:03;8.10;99.90
54429;DHT22;40337;52.978;6.310;2023-02-20T07:52:29;8.10;99.90
54429;DHT22;40337;52.978;6.310;2023-02-20T07:54:54;8.10;99.90
54429;DHT22;40337;52.978;6.310;2023-02-20T07:57:20;8.20;99.90
54429;DHT22;40337;52.978;6.310;2023-02-20T07:59:46;8.20;99.90
54429;DHT22;40337;52.978;6.310;2023-02-20T08:02:11;8.20;99.90
54429;DHT22;40337;52.978;6.310;2023-02-20T08:04:37;8.20;99.90
54429;DHT22;40337;52.978;6.310;2023-02-20T08:07:02;8.20;99.90
54429;DHT22;40337;52.978;6.310;2023-02-20T08:09:28;8.20;99.90
54429;DHT22;40337;52.978;6.310;2023-02-20T08:11:54;8.20;99.90
54429;DHT22;40337;52.978;6.310;2023-02-20T08:14:20;8.30;99.90
54429;DHT22;40337;52.978;6.310;2023-02-20T08:16:45;8.20;99.90
54429;DHT22;40337;52.978;6.310;2023-02-20T08:19:11;8.30;99.90
54429;DHT22;40337;52.978;6.310;2023-02-20T08:21:37;8.30;99.90
54429;DHT22;40337;52.978;6.310;2023-02-20T08:24:02;8.30;99.90
54429;DHT22;40337;52.978;6.310;2023-02-20T08:26:28;8.30;99.90
54429;DHT22;40337;52.978;6.310;2023-02-20T08:28:54;8.30;99.90
54429;DHT22;40337;52.978;6.310;2023-02-20T08:31:19;8.30;99.90
54429;DHT22;40337;52.978;6.310;2023-02-20T08:33:46;8.30;99.90
54429;DHT22;40337;52.978;6.310;2023-02-20T08:36:11;8.30;99.90
54429;DHT22;40337;52.978;6.310;2023-02-20T08:38:39;8.40;99.90
54429;DHT22;40337;52.978;6.310;2023-02-20T08:41:08;8.40;99.90
54429;DHT22;40337;52.978;6.310;2023-02-20T08:43:35;8.40;99.90
54429;DHT22;40337;52.978;6.310;2023-02-20T08:46:02;8.40;99.90
54429;DHT22;40337;52.978;6.310;2023-02-20T08:48:28;8.40;99.90
54429;DHT22;40337;52.978;6.310;2023-02-20T08:50:54;8.40;99.90
54429;DHT22;40337;52.978;6.310;2023-02-20T08:53:20;8.40;99.90
54429;DHT22;40337;52.978;6.310;2023-02-20T08:55:45;8.40;99.90
54429;DHT22;40337;52.978;6.310;2023-02-20T08:58:11;8.50;99.90
54429;DHT22;40337;52.978;6.310;2023-02-20T09:00:37;8.50;99.90
54429;DHT22;40337;52.978;6.310;2023-02-20T09:03:03;8.50;99.90
54429;DHT22;40337;52.978;6.310;2023-02-20T09:05:32;8.60;99.90
54429;DHT22;40337;52.978;6.310;2023-02-20T09:07:59;8.60;99.90
54429;DHT22;40337;52.978;6.310;2023-02-20T09:10:24;8.60;99.90
54429;DHT22;40337;52.978;6.310;2023-02-20T09:12:50;8.70;99.90
54429;DHT22;40337;52.978;6.310;2023-02-20T09:15:16;8.70;99.90
54429;DHT22;40337;52.978;6.310;2023-02-20T09:17:43;8.70;99.90
54429;DHT22;40337;52.978;6.310;2023-02-20T09:20:10;8.70;99.90
54429;DHT22;40337;52.978;6.310;2023-02-20T09:22:36;8.70;99.90
54429;DHT22;40337;52.978;6.310;2023-02-20T09:25:02;8.80;99.90
54429;DHT22;40337;52.978;6.310;2023-02-20T09:27:29;8.70;99.90
54429;DHT22;40337;52.978;6.310;2023-02-20T09:29:54;8.80;99.90
54429;DHT22;40337;52.978;6.310;2023-02-20T09:32:20;8.80;99.90
54429;DHT22;40337;52.978;6.310;2023-02-20T09:34:46;8.80;99.90
54429;DHT22;40337;52.978;6.310;2023-02-20T09:37:11;8.80;99.90
54429;DHT22;40337;52.978;6.310;2023-02-20T09:39:37;8.80;99.90
54429;DHT22;40337;52.978;6.310;2023-02-20T09:45:27;8.80;99.90
54429;DHT22;40337;52.978;6.310;2023-02-20T09:48:06;8.80;99.90
54429;DHT22;40337;52.978;6.310;2023-02-20T09:50:50;8.80;99.90
54429;DHT22;40337;52.978;6.310;2023-02-20T09:53:22;8.90;99.90
54429;DHT22;40337;52.978;6.310;2023-02-20T09:55:50;8.90;99.90
54429;DHT22;40337;52.978;6.310;2023-02-20T09:58:21;8.90;99.90
54429;DHT22;40337;52.978;6.310;2023-02-20T10:00:49;8.90;99.90
54429;DHT22;40337;52.978;6.310;2023-02-20T10:03:24;9.00;99.90
54429;DHT22;40337;52.978;6.310;2023-02-20T10:05:52;9.00;99.90
54429;DHT22;40337;52.978;6.310;2023-02-20T10:08:20;9.00;99.90
54429;DHT22;40337;52.978;6.310;2023-02-20T10:10:49;9.00;99.90
54429;DHT22;40337;52.978;6.310;2023-02-20T10:15:53;9.00;99.90
54429;DHT22;40337;52.978;6.310;2023-02-20T10:23:47;9.00;99.90
54429;DHT22;40337;52.978;6.310;2023-02-20T10:26:20;9.00;99.90
54429;DHT22;40337;52.978;6.310;2023-02-20T10:28:50;9.00;99.90
54429;DHT22;40337;52.978;6.310;2023-02-20T10:31:31;9.10;99.90
54429;DHT22;40337;52.978;6.310;2023-02-20T10:34:15;9.00;99.90
54429;DHT22;40337;52.978;6.310;2023-02-20T10:36:46;9.10;99.90
54429;DHT22;40337;52.978;6.310;2023-02-20T10:39:15;9.10;99.90
54429;DHT22;40337;52.978;6.310;2023-02-20T10:42:09;9.10;99.90
54429;DHT22;40337;52.978;6.310;2023-02-20T10:44:57;9.10;99.90
54429;DHT22;40337;52.978;6.310;2023-02-20T10:47:30;9.20;99.90
54429;DHT22;40337;52.978;6.310;2023-02-20T10:50:01;9.20;99.90
54429;DHT22;40337;52.978;6.310;2023-02-20T10:52:33;9.20;99.90
54429;DHT22;40337;52.978;6.310;2023-02-20T10:55:34;9.20;99.90
54429;DHT22;40337;52.978;6.310;2023-02-20T10:58:09;9.20;99.90
54429;DHT22;40337;52.978;6.310;2023-02-20T11:00:53;9.30;99.90
54429;DHT22;40337;52.978;6.310;2023-02-20T11:03:53;9.30;99.90
54429;DHT22;40337;52.978;6.310;2023-02-20T11:09:25;9.30;99.90
54429;DHT22;40337;52.978;6.310;2023-02-20T11:11:53;9.40;99.90
54429;DHT22;40337;52.978;6.310;2023-02-20T11:14:29;9.40;99.90
54429;DHT22;40337;52.978;6.310;2023-02-20T11:16:59;9.40;99.90
54429;DHT22;40337;52.978;6.310;2023-02-20T11:19:46;9.40;99.90
54429;DHT22;40337;52.978;6.310;2023-02-20T11:22:13;9.40;99.90
54429;DHT22;40337;52.978;6.310;2023-02-20T11:24:46;9.40;99.90
54429;DHT22;40337;52.978;6.310;2023-02-20T11:27:18;9.40;99.90
54429;DHT22;40337;52.978;6.310;2023-02-20T11:30:11;9.50;99.90
54429;DHT22;40337;52.978;6.310;2023-02-20T11:32:40;9.50;99.90
54429;DHT22;40337;52.978;6.310;2023-02-20T11:38:29;9.50;99.90
54429;DHT22;40337;52.978;6.310;2023-02-20T11:40:30;9.50;99.90
54429;DHT22;40337;52.978;6.310;2023-02-20T11:45:37;9.60;99.90
54429;DHT22;40337;52.978;6.310;2023-02-20T11:48:12;9.50;99.90
54429;DHT22;40337;52.978;6.310;2023-02-20T11:50:48;9.50;99.90
54429;DHT22;40337;52.978;6.310;2023-02-20T11:53:28;9.50;99.90
54429;DHT22;40337;52.978;6.310;2023-02-20T11:56:17;9.60;99.90
54429;DHT22;40337;52.978;6.310;2023-02-20T11:58:45;9.60;99.90
54429;DHT22;40337;52.978;6.310;2023-02-20T12:01:32;9.60;99.90
54429;DHT22;40337;52.978;6.310;2023-02-20T12:03:59;9.60;99.90
54429;DHT22;40337;52.978;6.310;2023-02-20T12:06:41;9.60;99.90
54429;DHT22;40337;52.978;6.310;2023-02-20T12:09:14;9.60;99.90
54429;DHT22;40337;52.978;6.310;2023-02-20T12:11:41;9.60;99.90
54429;DHT22;40337;52.978;6.310;2023-02-20T12:14:12;9.60;99.90
54429;DHT22;40337;52.978;6.310;2023-02-20T12:17:06;9.60;99.90
54429;DHT22;40337;52.978;6.310;2023-02-20T12:19:59;9.60;99.90
54429;DHT22;40337;52.978;6.310;2023-02-20T12:22:32;9.60;99.90
54429;DHT22;40337;52.978;6.310;2023-02-20T12:27:57;9.60;99.90
54429;DHT22;40337;52.978;6.310;2023-02-20T12:38:46;9.60;99.90
54429;DHT22;40337;52.978;6.310;2023-02-20T12:41:46;9.70;99.90
54429;DHT22;40337;52.978;6.310;2023-02-20T12:44:54;9.70;99.90
54429;DHT22;40337;52.978;6.310;2023-02-20T12:47:41;9.70;99.90
54429;DHT22;40337;52.978;6.310;2023-02-20T12:50:37;9.70;99.90
54429;DHT22;40337;52.978;6.310;2023-02-20T12:53:29;9.70;99.90
54429;DHT22;40337;52.978;6.310;2023-02-20T12:56:23;9.70;99.90
54429;DHT22;40337;52.978;6.310;2023-02-20T12:59:04;9.80;99.90
54429;DHT22;40337;52.978;6.310;2023-02-20T13:01:33;9.80;99.90
54429;DHT22;40337;52.978;6.310;2023-02-20T13:04:04;9.80;99.90
54429;DHT22;40337;52.978;6.310;2023-02-20T13:06:44;9.80;99.90
54429;DHT22;40337;52.978;6.310;2023-02-20T13:09:34;9.80;99.90
54429;DHT22;40337;52.978;6.310;2023-02-20T13:12:12;9.80;99.90
54429;DHT22;40337;52.978;6.310;2023-02-20T13:22:42;9.90;99.90
54429;DHT22;40337;52.978;6.310;2023-02-20T13:28:20;9.90;99.90
54429;DHT22;40337;52.978;6.310;2023-02-20T13:31:09;9.90;99.90
54429;DHT22;40337;52.978;6.310;2023-02-20T13:33:35;9.90;99.90
54429;DHT22;40337;52.978;6.310;2023-02-20T13:36:02;9.90;99.90
54429;DHT22;40337;52.978;6.310;2023-02-20T13:38:28;9.90;99.90
54429;DHT22;40337;52.978;6.310;2023-02-20T13:56:23;9.90;99.90
54429;DHT22;40337;52.978;6.310;2023-02-20T13:58:50;9.90;99.90
54429;DHT22;40337;52.978;6.310;2023-02-20T14:01:16;9.90;99.90
54429;DHT22;40337;52.978;6.310;2023-02-20T14:03:42;9.90;99.90
54429;DHT22;40337;52.978;6.310;2023-02-20T14:06:16;10.00;99.90
54429;DHT22;40337;52.978;6.310;2023-02-20T14:08:44;10.00;99.90
54429;DHT22;40337;52.978;6.310;2023-02-20T14:11:13;10.00;99.90
54429;DHT22;40337;52.978;6.310;2023-02-20T14:13:42;10.00;99.90
54429;DHT22;40337;52.978;6.310;2023-02-20T14:16:31;10.10;99.90
54429;DHT22;40337;52.978;6.310;2023-02-20T14:19:04;10.00;99.90
54429;DHT22;40337;52.978;6.310;2023-02-20T14:21:33;10.00;99.90
54429;DHT22;40337;52.978;6.310;2023-02-20T14:24:20;10.10;99.90
54429;DHT22;40337;52.978;6.310;2023-02-20T14:26:47;10.10;99.90
54429;DHT22;40337;52.978;6.310;2023-02-20T14:29:39;10.10;99.90
54429;DHT22;40337;52.978;6.310;2023-02-20T14:32:04;10.10;99.90
54429;DHT22;40337;52.978;6.310;2023-02-20T14:34:45;10.10;99.90
54429;DHT22;40337;52.978;6.310;2023-02-20T14:37:15;10.10;99.90
54429;DHT22;40337;52.978;6.310;2023-02-20T14:42:42;10.20;99.90
54429;DHT22;40337;52.978;6.310;2023-02-20T14:45:21;10.20;99.90
54429;DHT22;40337;52.978;6.310;2023-02-20T14:48:22;10.20;99.90
54429;DHT22;40337;52.978;6.310;2023-02-20T14:50:48;10.20;99.90
54429;DHT22;40337;52.978;6.310;2023-02-20T14:53:18;10.30;99.90
54429;DHT22;40337;52.978;6.310;2023-02-20T14:55:48;10.30;99.90
54429;DHT22;40337;52.978;6.310;2023-02-20T14:58:18;10.30;99.90
54429;DHT22;40337;52.978;6.310;2023-02-20T15:00:46;10.30;99.90
54429;DHT22;40337;52.978;6.310;2023-02-20T15:03:25;10.20;99.90
54429;DHT22;40337;52.978;6.310;2023-02-20T15:05:52;10.20;99.90
54429;DHT22;40337;52.978;6.310;2023-02-20T15:10:54;10.20;99.90
54429;DHT22;40337;52.978;6.310;2023-02-20T15:13:25;10.20;99.90
54429;DHT22;40337;52.978;6.310;2023-02-20T15:18:38;10.10;99.90
54429;DHT22;40337;52.978;6.310;2023-02-20T15:21:05;10.20;99.90
54429;DHT22;40337;52.978;6.310;2023-02-20T15:23:35;10.10;99.90
54429;DHT22;40337;52.978;6.310;2023-02-20T15:26:33;10.20;99.90
54429;DHT22;40337;52.978;6.310;2023-02-20T15:29:12;10.10;99.90
54429;DHT22;40337;52.978;6.310;2023-02-20T15:31:38;10.10;99.90
54429;DHT22;40337;52.978;6.310;2023-02-20T15:34:12;10.10;99.90
54429;DHT22;40337;52.978;6.310;2023-02-20T15:36:41;10.10;99.90
54429;DHT22;40337;52.978;6.310;2023-02-20T15:39:09;10.10;99.90
54429;DHT22;40337;52.978;6.310;2023-02-20T15:41:35;10.10;99.90
54429;DHT22;40337;52.978;6.310;2023-02-20T15:44:00;10.10;99.90
54429;DHT22;40337;52.978;6.310;2023-02-20T15:46:27;10.00;99.90
54429;DHT22;40337;52.978;6.310;2023-02-20T15:48:53;10.00;99.90
54429;DHT22;40337;52.978;6.310;2023-02-20T15:51:21;10.00;99.90
54429;DHT22;40337;52.978;6.310;2023-02-20T15:53:47;9.90;99.90
54429;DHT22;40337;52.978;6.310;2023-02-20T15:56:12;9.90;99.90
54429;DHT22;40337;52.978;6.310;2023-02-20T15:58:40;9.90;99.90
54429;DHT22;40337;52.978;6.310;2023-02-20T16:01:07;9.80;99.90
54429;DHT22;40337;52.978;6.310;2023-02-20T16:03:33;9.80;99.90
54429;DHT22;40337;52.978;6.310;2023-02-20T16:05:59;9.80;99.90
54429;DHT22;40337;52.978;6.310;2023-02-20T16:08:25;9.80;99.90
54429;DHT22;40337;52.978;6.310;2023-02-20T16:10:52;9.80;99.90
54429;DHT22;40337;52.978;6.310;2023-02-20T16:13:23;9.80;99.90
54429;DHT22;40337;52.978;6.310;2023-02-20T16:15:49;9.70;99.90
54429;DHT22;40337;52.978;6.310;2023-02-20T16:18:14;9.70;99.90
54429;DHT22;40337;52.978;6.310;2023-02-20T16:20:40;9.70;99.90
54429;DHT22;40337;52.978;6.310;2023-02-20T16:23:05;9.70;99.90
54429;DHT22;40337;52.978;6.310;2023-02-20T16:25:33;9.70;99.90
54429;DHT22;40337;52.978;6.310;2023-02-20T16:27:58;9.60;99.90
54429;DHT22;40337;52.978;6.310;2023-02-20T16:30:31;9.60;99.90
54429;DHT22;40337;52.978;6.310;2023-02-20T16:32:57;9.60;99.90
54429;DHT22;40337;52.978;6.310;2023-02-20T16:35:23;9.50;99.90
54429;DHT22;40337;52.978;6.310;2023-02-20T16:37:48;9.60;99.90
54429;DHT22;40337;52.978;6.310;2023-02-20T16:40:14;9.60;99.90
54429;DHT22;40337;52.978;6.310;2023-02-20T16:42:40;9.50;99.90
54429;DHT22;40337;52.978;6.310;2023-02-20T16:45:10;9.50;99.90
54429;DHT22;40337;52.978;6.310;2023-02-20T16:47:36;9.50;99.90
54429;DHT22;40337;52.978;6.310;2023-02-20T16:50:03;9.50;99.90
54429;DHT22;40337;52.978;6.310;2023-02-20T16:52:34;9.50;99.90
54429;DHT22;40337;52.978;6.310;2023-02-20T16:55:02;9.40;99.90
54429;DHT22;40337;52.978;6.310;2023-02-20T16:57:28;9.40;99.90
54429;DHT22;40337;52.978;6.310;2023-02-20T16:59:56;9.40;99.90
54429;DHT22;40337;52.978;6.310;2023-02-20T17:02:25;9.30;99.90
54429;DHT22;40337;52.978;6.310;2023-02-20T17:04:51;9.30;99.90
54429;DHT22;40337;52.978;6.310;2023-02-20T17:07:17;9.30;99.90
54429;DHT22;40337;52.978;6.310;2023-02-20T17:09:43;9.30;99.90
54429;DHT22;40337;52.978;6.310;2023-02-20T17:12:10;9.30;99.90
54429;DHT22;40337;52.978;6.310;2023-02-20T17:14:36;9.20;99.90
54429;DHT22;40337;52.978;6.310;2023-02-20T17:17:02;9.20;99.90
54429;DHT22;40337;52.978;6.310;2023-02-20T17:19:28;9.20;99.90